createdAt,value
2019-03-27T00:00:49.338Z,27.23
2019-03-27T00:03:20.316Z,27.17
2019-03-27T00:05:52.214Z,26.87
2019-03-27T00:08:23.179Z,28.47
2019-03-27T00:10:54.119Z,26.07
2019-03-27T00:13:25.010Z,24.33
2019-03-27T00:15:55.930Z,24.07
2019-03-27T00:18:26.847Z,23.17
2019-03-27T00:20:58.635Z,22.17
2019-03-27T00:23:29.526Z,23.30
2019-03-27T00:26:00.456Z,23.40
2019-03-27T00:28:31.361Z,25.97
2019-03-27T00:31:02.299Z,25.87
2019-03-27T00:33:33.209Z,22.87
2019-03-27T00:36:05.067Z,20.73
2019-03-27T00:38:35.976Z,21.33
2019-03-27T00:41:06.910Z,18.23
2019-03-27T00:43:40.846Z,19.07
2019-03-27T00:46:11.782Z,16.93
2019-03-27T00:48:42.686Z,16.87
2019-03-27T00:51:14.442Z,15.87
2019-03-27T00:53:45.345Z,15.80
2019-03-27T00:56:16.274Z,16.33
2019-03-27T00:58:47.195Z,16.37
2019-03-27T01:01:18.118Z,16.53
2019-03-27T01:03:49.020Z,14.83
2019-03-27T01:06:21.774Z,15.43
2019-03-27T01:08:52.675Z,15.17
2019-03-27T01:11:23.639Z,14.67
2019-03-27T01:13:54.540Z,14.43
2019-03-27T01:16:28.214Z,13.60
2019-03-27T01:18:59.105Z,12.50
2019-03-27T01:21:30.858Z,11.27
2019-03-27T01:24:01.838Z,12.23
2019-03-27T01:26:32.782Z,12.30
2019-03-27T01:29:03.687Z,12.33
2019-03-27T01:31:34.619Z,13.23
2019-03-27T01:34:05.524Z,14.90
2019-03-27T01:36:37.453Z,12.77
2019-03-27T01:39:08.658Z,12.73
2019-03-27T01:41:39.657Z,12.60
2019-03-27T01:44:10.575Z,12.40
2019-03-27T01:46:41.503Z,11.77
2019-03-27T01:49:12.413Z,13.07
2019-03-27T01:51:44.955Z,13.33
2019-03-27T01:54:15.861Z,14.07
2019-03-27T01:56:46.791Z,14.60
2019-03-27T01:59:17.696Z,12.30
2019-03-27T02:01:48.618Z,11.40
2019-03-27T02:04:19.531Z,12.00
2019-03-27T02:06:51.362Z,11.97
2019-03-27T02:09:22.260Z,12.90
2019-03-27T02:11:53.185Z,13.60
2019-03-27T02:14:24.099Z,15.40
2019-03-27T02:16:55.097Z,16.70
2019-03-27T02:19:26.006Z,15.83
2019-03-27T02:22:00.667Z,16.00
2019-03-27T02:24:31.565Z,16.30
2019-03-27T02:27:02.489Z,14.33
2019-03-27T02:29:33.390Z,14.70
2019-03-27T02:32:04.420Z,14.37
2019-03-27T02:34:35.385Z,13.30
2019-03-27T02:37:09.160Z,13.20
2019-03-27T02:39:40.095Z,13.50
2019-03-27T02:42:11.016Z,12.80
2019-03-27T02:44:41.918Z,12.23
2019-03-27T02:47:12.873Z,11.70
2019-03-27T02:49:43.779Z,10.40
2019-03-27T02:52:14.774Z,9.43
2019-03-27T02:54:45.753Z,8.97
2019-03-27T02:57:16.674Z,9.30
2019-03-27T02:59:47.574Z,8.50
2019-03-27T03:02:18.519Z,7.70
2019-03-27T03:04:49.446Z,8.27
2019-03-27T03:07:20.403Z,8.23
2019-03-27T03:09:51.312Z,8.17
2019-03-27T03:12:22.236Z,8.53
2019-03-27T03:14:53.145Z,7.97
2019-03-27T03:17:24.071Z,8.53
2019-03-27T03:19:54.966Z,8.70
2019-03-27T03:22:25.918Z,8.90
2019-03-27T03:24:56.837Z,9.33
2019-03-27T03:27:27.770Z,8.80
2019-03-27T03:29:58.687Z,10.30
2019-03-27T03:32:29.605Z,9.43
2019-03-27T03:35:00.991Z,9.70
2019-03-27T03:37:33.783Z,10.30
2019-03-27T03:40:05.881Z,9.37
2019-03-27T03:42:37.709Z,9.80
2019-03-27T03:45:09.026Z,9.27
2019-03-27T03:47:39.943Z,9.03
2019-03-27T03:50:19.638Z,8.83
2019-03-27T03:52:52.355Z,9.43
2019-03-27T03:55:23.361Z,9.30
2019-03-27T03:57:55.101Z,8.63
2019-03-27T04:00:26.896Z,8.53
2019-03-27T04:02:57.931Z,8.93
2019-03-27T04:05:28.842Z,8.60
2019-03-27T04:07:59.829Z,8.43
2019-03-27T04:10:30.740Z,11.13
2019-03-27T04:13:01.681Z,9.87
2019-03-27T04:15:32.586Z,10.67
2019-03-27T04:18:03.590Z,9.83
2019-03-27T04:20:34.497Z,9.13
2019-03-27T04:23:06.257Z,11.73
2019-03-27T04:26:07.040Z,10.23
2019-03-27T04:28:09.816Z,9.33
2019-03-27T04:30:40.774Z,9.03
2019-03-27T04:33:11.710Z,9.30
2019-03-27T04:35:42.613Z,10.30
2019-03-27T04:38:13.605Z,10.17
2019-03-27T04:40:44.495Z,11.03
2019-03-27T04:43:15.448Z,10.50
2019-03-27T04:45:46.365Z,14.20
2019-03-27T04:48:18.110Z,13.63
2019-03-27T04:50:49.020Z,11.70
2019-03-27T04:53:20.775Z,10.53
2019-03-27T04:55:51.705Z,10.23
2019-03-27T04:58:22.662Z,6.87
2019-03-27T05:00:53.567Z,6.00
2019-03-27T05:03:24.554Z,5.30
2019-03-27T05:05:55.440Z,5.20
2019-03-27T05:08:27.415Z,6.17
2019-03-27T05:10:58.302Z,4.63
2019-03-27T05:13:29.218Z,6.60
2019-03-27T05:16:00.110Z,8.30
2019-03-27T05:18:31.033Z,8.97
2019-03-27T05:21:01.930Z,9.20
2019-03-27T05:23:34.034Z,9.33
2019-03-27T05:26:04.945Z,12.13
2019-03-27T05:28:35.882Z,12.30
2019-03-27T05:31:06.786Z,16.80
2019-03-27T05:33:37.710Z,35.27
2019-03-27T05:36:08.610Z,38.33
2019-03-27T05:38:40.468Z,33.13
2019-03-27T05:41:11.670Z,21.30
2019-03-27T05:43:42.613Z,11.90
2019-03-27T05:46:13.593Z,9.57
2019-03-27T05:48:44.583Z,8.63
2019-03-27T05:51:15.469Z,8.33
2019-03-27T05:53:48.007Z,8.10
2019-03-27T05:56:18.904Z,7.93
2019-03-27T05:58:49.897Z,8.37
2019-03-27T06:01:20.869Z,9.93
2019-03-27T06:03:51.878Z,9.43
2019-03-27T06:06:22.754Z,7.70
2019-03-27T06:08:54.519Z,6.77
2019-03-27T06:11:25.412Z,6.80
2019-03-27T06:13:56.335Z,9.37
2019-03-27T06:16:27.267Z,23.47
2019-03-27T06:18:58.164Z,26.60
2019-03-27T06:21:29.065Z,18.63
2019-03-27T06:24:00.012Z,10.27
2019-03-27T06:26:33.413Z,7.10
2019-03-27T06:29:04.328Z,8.60
2019-03-27T06:31:35.219Z,9.40
2019-03-27T06:34:06.138Z,7.60
2019-03-27T06:36:37.044Z,15.23
2019-03-27T06:39:08.945Z,21.68
2019-03-27T06:41:39.842Z,16.20
2019-03-27T06:44:10.769Z,15.03
2019-03-27T06:46:41.684Z,12.17
2019-03-27T06:49:12.615Z,10.97
2019-03-27T06:51:43.536Z,8.63
2019-03-27T06:54:16.059Z,8.40
2019-03-27T06:56:46.941Z,6.57
2019-03-27T06:59:17.870Z,5.60
2019-03-27T07:01:48.780Z,6.17
2019-03-27T07:04:19.697Z,6.73
2019-03-27T07:06:50.600Z,11.17
2019-03-27T07:09:22.365Z,17.47
2019-03-27T07:11:53.260Z,17.53
2019-03-27T07:14:24.194Z,12.73
2019-03-27T07:16:55.105Z,20.13
2019-03-27T07:19:26.060Z,17.20
2019-03-27T07:21:56.934Z,16.47
2019-03-27T07:24:27.870Z,18.13
2019-03-27T07:27:00.131Z,15.03
2019-03-27T07:29:31.083Z,13.50
2019-03-27T07:32:01.979Z,11.20
2019-03-27T07:34:32.898Z,6.07
2019-03-27T07:37:03.794Z,7.07
2019-03-27T07:39:36.499Z,7.20
2019-03-27T07:42:07.394Z,6.23
2019-03-27T07:44:38.333Z,7.50
2019-03-27T07:47:09.230Z,7.20
2019-03-27T07:49:40.145Z,6.80
2019-03-27T07:52:11.111Z,6.73
2019-03-27T07:54:43.757Z,8.00
2019-03-27T07:57:14.643Z,7.57
2019-03-27T07:59:45.566Z,13.47
2019-03-27T08:02:16.485Z,7.53
2019-03-27T08:04:47.401Z,6.20
2019-03-27T08:07:26.741Z,8.03
2019-03-27T08:09:50.932Z,7.77
2019-03-27T08:12:21.841Z,7.40
2019-03-27T08:14:52.763Z,7.20
2019-03-27T08:17:23.671Z,7.67
2019-03-27T08:19:54.627Z,6.60
2019-03-27T08:22:25.507Z,11.60
2019-03-27T08:24:58.219Z,18.60
2019-03-27T08:27:29.115Z,15.20
2019-03-27T08:30:00.050Z,6.25
2019-03-27T08:32:31.080Z,6.75
2019-03-27T08:35:02.032Z,7.00
2019-03-27T08:37:32.920Z,6.40
2019-03-27T08:40:05.560Z,4.80
2019-03-27T08:42:37.335Z,5.53
2019-03-27T08:45:09.864Z,5.70
2019-03-27T08:47:40.749Z,4.63
2019-03-27T08:50:12.374Z,5.40
2019-03-27T08:52:43.275Z,5.27
2019-03-27T08:55:15.856Z,5.03
2019-03-27T08:57:46.747Z,5.23
2019-03-27T09:00:21.432Z,4.75
2019-03-27T09:02:52.448Z,5.08
2019-03-27T09:05:23.382Z,5.50
2019-03-27T09:07:54.285Z,5.27
2019-03-27T09:10:29.862Z,7.87
2019-03-27T09:13:02.323Z,13.15
2019-03-27T09:15:33.262Z,9.90
2019-03-27T09:18:04.355Z,6.80
2019-03-27T09:20:35.275Z,6.27
2019-03-27T09:23:06.170Z,7.87
2019-03-27T09:25:37.913Z,6.10
2019-03-27T09:28:08.910Z,6.83
2019-03-27T09:30:39.845Z,5.80
2019-03-27T09:33:10.736Z,5.17
2019-03-27T09:35:41.664Z,4.23
2019-03-27T09:38:12.585Z,4.53
2019-03-27T09:40:45.230Z,4.03
2019-03-27T09:43:16.141Z,9.93
2019-03-27T09:45:47.929Z,6.47
2019-03-27T09:48:18.829Z,4.87
2019-03-27T09:50:49.825Z,4.70
2019-03-27T09:53:20.719Z,4.47
2019-03-27T09:55:52.597Z,4.30
2019-03-27T09:58:23.510Z,4.60
2019-03-27T10:00:55.922Z,4.33
2019-03-27T10:03:26.819Z,5.27
2019-03-27T10:05:57.750Z,4.53
2019-03-27T10:08:30.076Z,5.40
2019-03-27T10:11:04.247Z,5.17
2019-03-27T10:13:35.143Z,5.60
2019-03-27T10:16:06.151Z,5.20
2019-03-27T10:18:37.051Z,4.57
2019-03-27T10:21:07.982Z,4.67
2019-03-27T10:23:38.890Z,6.10
2019-03-27T10:26:10.734Z,16.90
2019-03-27T10:28:41.634Z,6.77
2019-03-27T10:31:12.570Z,16.30
2019-03-27T10:33:43.552Z,16.17
2019-03-27T10:36:14.498Z,14.50
2019-03-27T10:38:45.400Z,8.95
2019-03-27T10:41:17.195Z,6.85
2019-03-27T10:43:48.096Z,4.92
2019-03-27T10:46:19.035Z,4.70
2019-03-27T10:48:52.918Z,4.70
2019-03-27T10:51:22.563Z,4.50
2019-03-27T10:53:53.455Z,4.50
2019-03-27T10:56:24.433Z,4.70
2019-03-27T10:58:55.331Z,4.12
2019-03-27T11:01:26.255Z,4.73
2019-03-27T11:03:57.157Z,3.85
2019-03-27T11:06:28.100Z,3.70
2019-03-27T11:08:58.999Z,4.53
2019-03-27T11:11:30.830Z,4.70
2019-03-27T11:14:01.708Z,4.78
2019-03-27T11:16:32.632Z,4.83
2019-03-27T11:19:03.524Z,5.20
2019-03-27T11:21:34.461Z,7.72
2019-03-27T11:24:05.367Z,7.15
2019-03-27T11:26:36.347Z,6.53
2019-03-27T11:29:07.243Z,5.00
2019-03-27T11:31:38.176Z,4.83
2019-03-27T11:34:09.063Z,3.60
2019-03-27T11:36:39.980Z,4.03
2019-03-27T11:39:11.079Z,5.40
2019-03-27T11:41:42.901Z,4.77
2019-03-27T11:44:13.801Z,4.78
2019-03-27T11:46:44.744Z,5.00
2019-03-27T11:49:15.636Z,4.85
2019-03-27T11:51:46.551Z,4.17
2019-03-27T11:54:17.451Z,5.25
2019-03-27T11:56:48.418Z,4.15
2019-03-27T11:59:19.312Z,5.03
2019-03-27T12:01:50.237Z,6.08
2019-03-27T12:04:21.143Z,6.42
2019-03-27T12:06:52.071Z,4.65
2019-03-27T12:09:22.965Z,6.33
2019-03-27T12:11:55.695Z,6.30
2019-03-27T12:14:26.606Z,5.80
2019-03-27T12:16:57.602Z,6.50
2019-03-27T12:19:28.563Z,5.33
2019-03-27T12:21:59.501Z,5.67
2019-03-27T12:24:30.410Z,6.55
2019-03-27T12:27:02.228Z,5.45
2019-03-27T12:29:33.123Z,6.20
2019-03-27T12:32:04.058Z,6.75
2019-03-27T12:34:36.859Z,5.42
2019-03-27T12:37:07.577Z,5.50
2019-03-27T12:39:40.780Z,5.40
2019-03-27T12:42:11.991Z,6.97
2019-03-27T12:44:42.899Z,6.47
2019-03-27T12:47:13.819Z,6.30
2019-03-27T12:49:44.705Z,6.08
2019-03-27T12:52:15.629Z,5.90
2019-03-27T12:54:46.528Z,5.20
2019-03-27T12:57:21.526Z,5.73
2019-03-27T12:59:52.418Z,6.30
2019-03-27T13:02:23.363Z,6.10
2019-03-27T13:04:54.254Z,6.20
2019-03-27T13:07:25.992Z,6.65
2019-03-27T13:09:56.903Z,7.05
2019-03-27T13:12:29.473Z,7.17
2019-03-27T13:15:01.083Z,7.20
2019-03-27T13:17:34.329Z,7.57
2019-03-27T13:20:07.358Z,7.00
2019-03-27T13:22:38.656Z,7.12
2019-03-27T13:25:09.962Z,7.12
2019-03-27T13:27:41.907Z,8.58
2019-03-27T13:30:13.104Z,6.37
2019-03-27T13:32:44.029Z,6.37
2019-03-27T13:35:15.018Z,6.22
2019-03-27T13:37:45.947Z,5.87
2019-03-27T13:40:17.352Z,6.28
2019-03-27T13:42:49.171Z,7.05
2019-03-27T13:45:20.084Z,6.80
2019-03-27T13:47:51.005Z,6.15
2019-03-27T13:50:22.717Z,5.90
2019-03-27T13:52:53.646Z,6.07
2019-03-27T13:55:24.624Z,7.33
2019-03-27T13:57:55.633Z,6.20
2019-03-27T14:00:26.540Z,6.20
2019-03-27T14:02:57.470Z,6.28
2019-03-27T14:05:28.375Z,7.00
2019-03-27T14:07:59.375Z,5.83
2019-03-27T14:10:30.295Z,11.00
2019-03-27T14:13:02.281Z,17.63
2019-03-27T14:15:33.187Z,11.37
2019-03-27T14:18:04.210Z,29.07
2019-03-27T14:20:35.127Z,18.70
2019-03-27T14:23:06.075Z,21.73
2019-03-27T14:25:36.990Z,11.07
2019-03-27T14:28:07.970Z,9.03
2019-03-27T14:31:00.758Z,13.43
2019-03-27T14:33:31.709Z,19.00
2019-03-27T14:36:02.624Z,19.87
2019-03-27T14:38:33.559Z,11.83
2019-03-27T14:41:04.465Z,11.23
2019-03-27T14:43:36.282Z,12.20
2019-03-27T14:46:07.189Z,13.93
2019-03-27T14:48:38.125Z,12.93
2019-03-27T14:51:09.145Z,11.87
2019-03-27T14:53:40.095Z,11.50
2019-03-27T14:56:11.009Z,12.80
2019-03-27T14:58:42.845Z,30.23
2019-03-27T15:01:13.823Z,11.17
2019-03-27T15:03:44.757Z,9.20
2019-03-27T15:06:15.658Z,10.07
2019-03-27T15:08:46.595Z,8.93
2019-03-27T15:11:17.491Z,9.43
2019-03-27T15:13:50.073Z,14.53
2019-03-27T15:16:21.585Z,9.33
2019-03-27T15:18:52.846Z,8.37
2019-03-27T15:21:23.764Z,16.23
2019-03-27T15:23:54.696Z,15.97
2019-03-27T15:26:25.590Z,9.13
2019-03-27T15:28:57.487Z,8.50
2019-03-27T15:31:28.383Z,6.60
2019-03-27T15:33:59.298Z,7.83
2019-03-27T15:36:30.199Z,9.90
2019-03-27T15:39:01.129Z,13.63
2019-03-27T15:41:32.043Z,12.33
2019-03-27T15:44:03.841Z,10.23
2019-03-27T15:46:34.827Z,25.17
2019-03-27T15:49:05.747Z,21.37
2019-03-27T15:51:36.649Z,21.43
2019-03-27T15:54:07.595Z,15.07
2019-03-27T15:56:38.738Z,14.10
2019-03-27T15:59:11.482Z,11.90
2019-03-27T16:01:42.393Z,11.13
2019-03-27T16:04:13.398Z,8.87
2019-03-27T16:06:44.294Z,8.20
2019-03-27T16:09:16.393Z,9.33
2019-03-27T16:11:47.291Z,8.00
2019-03-27T16:14:21.465Z,8.00
2019-03-27T16:17:07.076Z,7.63
2019-03-27T16:19:24.985Z,7.90
2019-03-27T16:21:55.901Z,8.13
2019-03-27T16:24:26.829Z,20.00
2019-03-27T16:27:04.198Z,13.87
2019-03-27T16:29:32.122Z,21.00
2019-03-27T16:32:03.418Z,23.93
2019-03-27T16:34:34.978Z,17.63
2019-03-27T16:37:05.911Z,16.70
2019-03-27T16:39:36.861Z,54.87
2019-03-27T16:42:07.777Z,31.43
2019-03-27T16:44:39.910Z,38.63
2019-03-27T16:47:10.916Z,32.43
2019-03-27T16:49:41.852Z,47.10
2019-03-27T16:52:12.749Z,24.80
2019-03-27T16:54:43.684Z,17.53
2019-03-27T16:57:14.591Z,15.50
2019-03-27T16:59:45.536Z,15.87
2019-03-27T17:02:16.435Z,9.77
2019-03-27T17:04:47.372Z,13.17
2019-03-27T17:07:20.323Z,10.87
2019-03-27T17:09:52.116Z,10.83
2019-03-27T17:12:23.023Z,10.57
2019-03-27T17:14:55.476Z,6.43
2019-03-27T17:17:29.088Z,12.77
2019-03-27T17:19:59.996Z,15.87
2019-03-27T17:22:30.937Z,10.67
2019-03-27T17:25:01.830Z,13.70
2019-03-27T17:27:32.770Z,10.00
2019-03-27T17:30:04.581Z,10.57
2019-03-27T17:32:35.693Z,9.03
2019-03-27T17:35:07.268Z,11.07
2019-03-27T17:37:38.211Z,10.73
2019-03-27T17:40:11.014Z,12.63
2019-03-27T17:42:41.941Z,14.07
2019-03-27T17:45:12.955Z,12.00
2019-03-27T17:47:44.705Z,8.10
2019-03-27T17:50:16.093Z,9.87
2019-03-27T17:52:47.016Z,9.77
2019-03-27T17:55:17.952Z,9.90
2019-03-27T17:57:48.840Z,10.97
2019-03-27T18:00:24.300Z,12.63
2019-03-27T18:02:56.132Z,14.23
2019-03-27T18:05:27.028Z,14.63
2019-03-27T18:07:58.030Z,13.93
2019-03-27T18:10:28.932Z,15.40
2019-03-27T18:12:59.867Z,19.03
2019-03-27T18:15:31.546Z,15.33
2019-03-27T18:18:03.313Z,18.07
2019-03-27T18:20:34.220Z,15.83
2019-03-27T18:23:05.264Z,16.93
2019-03-27T18:25:36.236Z,18.30
2019-03-27T18:28:07.169Z,17.17
2019-03-27T18:30:46.140Z,19.87
2019-03-27T18:33:17.264Z,22.60
2019-03-27T18:35:48.165Z,20.33
2019-03-27T18:38:19.107Z,17.00
2019-03-27T18:40:50.018Z,19.47
2019-03-27T18:43:21.010Z,23.13
2019-03-27T18:45:51.917Z,17.63
2019-03-27T18:48:23.870Z,17.53
2019-03-27T18:50:54.766Z,18.33
2019-03-27T18:53:25.704Z,27.63
2019-03-27T18:55:56.612Z,33.53
2019-03-27T18:58:27.544Z,36.10
2019-03-27T19:00:58.454Z,33.87
2019-03-27T19:03:30.520Z,37.33
2019-03-27T19:06:02.240Z,33.00
2019-03-27T19:08:33.169Z,26.27
2019-03-27T19:11:04.672Z,23.63
2019-03-27T19:13:35.670Z,23.43
2019-03-27T19:16:09.468Z,25.00
2019-03-27T19:18:41.576Z,19.23
2019-03-27T19:21:12.482Z,20.80
2019-03-27T19:23:43.423Z,20.03
2019-03-27T19:26:14.323Z,16.73
2019-03-27T19:28:45.244Z,17.70
2019-03-27T19:31:16.144Z,19.63
2019-03-27T19:33:48.358Z,16.07
2019-03-27T19:36:19.557Z,16.87
2019-03-27T19:38:50.490Z,15.97
2019-03-27T19:41:21.474Z,15.20
2019-03-27T19:43:52.493Z,15.47
2019-03-27T19:46:23.446Z,16.10
2019-03-27T19:48:55.354Z,16.17
2019-03-27T19:51:26.307Z,17.67
2019-03-27T19:53:57.433Z,17.23
2019-03-27T19:56:30.769Z,15.97
2019-03-27T19:59:01.831Z,17.60
2019-03-27T20:01:32.804Z,18.63
2019-03-27T20:04:04.858Z,21.63
2019-03-27T20:06:35.870Z,24.10
2019-03-27T20:09:07.758Z,30.30
2019-03-27T20:11:38.732Z,22.23
2019-03-27T20:14:09.769Z,15.60
2019-03-27T20:16:41.678Z,11.17
2019-03-27T20:19:13.554Z,10.00
2019-03-27T20:21:44.547Z,10.53
2019-03-27T20:24:15.470Z,9.73
2019-03-27T20:26:46.370Z,12.80
2019-03-27T20:29:17.305Z,14.03
2019-03-27T20:31:48.215Z,12.97
2019-03-27T20:34:20.000Z,13.23
2019-03-27T20:36:50.911Z,12.83
2019-03-27T20:39:21.861Z,14.90
2019-03-27T20:41:52.767Z,12.97
2019-03-27T20:44:23.698Z,13.00
2019-03-27T20:46:54.590Z,13.03
2019-03-27T20:49:26.495Z,15.57
2019-03-27T20:51:57.410Z,13.33
2019-03-27T20:54:28.331Z,15.17
2019-03-27T20:56:59.311Z,14.40
2019-03-27T20:59:30.252Z,14.13
2019-03-27T21:02:01.148Z,13.90
2019-03-27T21:04:32.917Z,16.43
2019-03-27T21:07:03.825Z,14.77
2019-03-27T21:09:34.753Z,15.70
2019-03-27T21:12:06.066Z,17.60
2019-03-27T21:14:36.998Z,18.40
2019-03-27T21:17:09.472Z,21.20
2019-03-27T21:19:42.810Z,22.10
2019-03-27T21:22:13.713Z,25.47
2019-03-27T21:24:44.638Z,21.50
2019-03-27T21:27:16.915Z,18.77
2019-03-27T21:29:47.959Z,18.50
2019-03-27T21:32:18.862Z,18.93
2019-03-27T21:34:50.665Z,20.83
2019-03-27T21:37:21.594Z,21.87
2019-03-27T21:39:52.517Z,26.17
2019-03-27T21:42:30.126Z,24.67
2019-03-27T21:45:01.033Z,25.30
2019-03-27T21:47:31.939Z,22.73
2019-03-27T21:50:02.892Z,20.07
2019-03-27T21:52:33.789Z,18.47
2019-03-27T21:55:06.432Z,23.13
2019-03-27T21:57:37.335Z,22.67
2019-03-27T22:00:10.167Z,21.40
2019-03-27T22:02:41.132Z,21.93
2019-03-27T22:05:13.175Z,22.13
2019-03-27T22:07:44.067Z,22.77
2019-03-27T22:10:15.000Z,22.40
2019-03-27T22:12:45.897Z,21.23
2019-03-27T22:15:16.836Z,21.60
2019-03-27T22:17:48.533Z,22.00
2019-03-27T22:20:19.481Z,20.07
2019-03-27T22:22:50.392Z,19.17
2019-03-27T22:25:21.331Z,20.60
2019-03-27T22:27:52.234Z,20.80
2019-03-27T22:30:23.169Z,20.30
2019-03-27T22:32:54.070Z,20.90
2019-03-27T22:35:25.890Z,19.57
2019-03-27T22:37:56.798Z,20.33
2019-03-27T22:40:27.726Z,20.27
2019-03-27T22:42:58.628Z,17.20
2019-03-27T22:45:29.561Z,19.37
2019-03-27T22:48:00.455Z,18.30
2019-03-27T22:50:31.415Z,17.47
2019-03-27T22:53:02.392Z,16.53
2019-03-27T22:55:33.322Z,18.43
2019-03-27T22:58:04.219Z,18.17
2019-03-27T23:00:40.033Z,16.93
2019-03-27T23:03:18.042Z,16.97
2019-03-27T23:05:43.669Z,15.50
2019-03-27T23:08:14.645Z,17.53
2019-03-27T23:10:47.131Z,17.07
2019-03-27T23:13:18.020Z,15.53
2019-03-27T23:15:48.948Z,16.93
2019-03-27T23:18:20.670Z,16.37
2019-03-27T23:20:52.497Z,15.57
2019-03-27T23:23:23.411Z,14.20
2019-03-27T23:26:02.931Z,14.73
2019-03-27T23:28:26.940Z,15.40
2019-03-27T23:30:57.856Z,15.60
2019-03-27T23:33:28.837Z,15.10
2019-03-27T23:36:00.687Z,15.37
2019-03-27T23:38:31.590Z,15.80
2019-03-27T23:41:02.512Z,15.97
2019-03-27T23:43:33.407Z,17.23
2019-03-27T23:46:04.350Z,15.67
2019-03-27T23:48:35.253Z,16.20
2019-03-27T23:51:06.202Z,14.30
2019-03-27T23:53:40.075Z,14.50
2019-03-27T23:56:16.516Z,13.87
2019-03-27T23:58:43.604Z,14.07
